
<gpx xmlns="http://www.topografix.com/GPX/1/1" xmlns:gpxx="http://www.garmin.com/xmlschemas/GpxExtensions/v3" xmlns:xsi="http://www.w3.org/2001/XMLSchema-instance" version="1.1" creator="Adze - http://kobotsw.com/apps/adze" xsi:schemaLocation="http://www.topografix.com/GPX/1/1 http://www.topografix.com/GPX/1/1/gpx.xsd http://www.garmin.com/xmlschemas/GpxExtensions/v3 http://www.garmin.com/xmlschemas/GpxExtensionsv3.xsd">
    <metadata>
        <name>Untitled Document</name>
        <link href="http://www.garmin.com"></link>
        <time>2018-02-26T02:56:52.957Z</time>
    </metadata>
    <wpt lon="100.943067" lat="14.518200">
        <ele>63.000000</ele>
        <time>2015-09-26T04:37:36Z</time>
        <name>BaanDaraResort</name>
        <cmt>26-SEP-15 11:37:36AM</cmt>
        <desc>26-SEP-15 11:37:36AM</desc>
        <sym>Lodging</sym>
        <extensions>
            <gpxx:WaypointExtension xmlns:gpxx="http://www.garmin.com/xmlschemas/GpxExtensions/v3">
                <gpxx:DisplayMode>SymbolOnly</gpxx:DisplayMode>
            </gpxx:WaypointExtension>
        </extensions>
    </wpt>
    <trk>
        <name>Sunday</name>
        <extensions>
            <gpxx:TrackExtension xmlns:gpxx="http://www.garmin.com/xmlschemas/GpxExtensions/v3">
                <gpxx:DisplayColor>Green</gpxx:DisplayColor>
            </gpxx:TrackExtension>
        </extensions>
        <trkseg>
            <trkpt lon="100.943082" lat="14.518693">
                <ele>36.670000</ele>
                <time>2016-04-24T03:03:24Z</time>
            </trkpt>
            <trkpt lon="100.942876" lat="14.518665">
                <ele>37.150000</ele>
                <time>2016-04-24T03:03:34Z</time>
            </trkpt>
            <trkpt lon="100.942802" lat="14.518846">
                <ele>38.590000</ele>
                <time>2016-04-24T03:03:41Z</time>
            </trkpt>
            <trkpt lon="100.942762" lat="14.521627">
                <ele>36.670000</ele>
                <time>2016-04-24T03:04:47Z</time>
            </trkpt>
            <trkpt lon="100.942870" lat="14.521647">
                <ele>36.670000</ele>
                <time>2016-04-24T03:04:50Z</time>
            </trkpt>
            <trkpt lon="100.946668" lat="14.520117">
                <ele>28.500000</ele>
                <time>2016-04-24T03:06:02Z</time>
            </trkpt>
            <trkpt lon="100.949100" lat="14.518836">
                <ele>28.020000</ele>
                <time>2016-04-24T03:07:01Z</time>
            </trkpt>
            <trkpt lon="100.949580" lat="14.518870">
                <ele>26.090000</ele>
                <time>2016-04-24T03:07:11Z</time>
            </trkpt>
            <trkpt lon="100.949614" lat="14.518849">
                <ele>26.090000</ele>
                <time>2016-04-24T03:07:13Z</time>
            </trkpt>
            <trkpt lon="100.949985" lat="14.518574">
                <ele>27.050000</ele>
                <time>2016-04-24T03:08:35Z</time>
            </trkpt>
            <trkpt lon="100.950048" lat="14.518581">
                <ele>27.050000</ele>
                <time>2016-04-24T03:08:38Z</time>
            </trkpt>
            <trkpt lon="100.950196" lat="14.518578">
                <ele>26.570000</ele>
                <time>2016-04-24T03:08:45Z</time>
            </trkpt>
            <trkpt lon="100.950674" lat="14.518624">
                <ele>27.050000</ele>
                <time>2016-04-24T03:09:03Z</time>
            </trkpt>
            <trkpt lon="100.951131" lat="14.518651">
                <ele>26.090000</ele>
                <time>2016-04-24T03:09:20Z</time>
            </trkpt>
            <trkpt lon="100.951195" lat="14.518615">
                <ele>26.090000</ele>
                <time>2016-04-24T03:09:22Z</time>
            </trkpt>
            <trkpt lon="100.952828" lat="14.518273">
                <ele>26.570000</ele>
                <time>2016-04-24T03:10:14Z</time>
            </trkpt>
            <trkpt lon="100.957786" lat="14.520167">
                <ele>25.610000</ele>
                <time>2016-04-24T03:12:00Z</time>
            </trkpt>
            <trkpt lon="100.958785" lat="14.520436">
                <ele>26.090000</ele>
                <time>2016-04-24T03:12:21Z</time>
            </trkpt>
            <trkpt lon="100.960194" lat="14.521459">
                <ele>25.610000</ele>
                <time>2016-04-24T03:12:55Z</time>
            </trkpt>
            <trkpt lon="100.960719" lat="14.521712">
                <ele>25.610000</ele>
                <time>2016-04-24T03:13:06Z</time>
            </trkpt>
            <trkpt lon="100.960781" lat="14.521900">
                <ele>25.610000</ele>
                <time>2016-04-24T03:13:10Z</time>
            </trkpt>
            <trkpt lon="100.960796" lat="14.523196">
                <ele>24.650000</ele>
                <time>2016-04-24T03:13:33Z</time>
            </trkpt>
            <trkpt lon="100.961778" lat="14.523726">
                <ele>24.170000</ele>
                <time>2016-04-24T03:13:53Z</time>
            </trkpt>
            <trkpt lon="100.963835" lat="14.524311">
                <ele>26.090000</ele>
                <time>2016-04-24T03:14:36Z</time>
            </trkpt>
            <trkpt lon="100.963922" lat="14.524352">
                <ele>25.610000</ele>
                <time>2016-04-24T03:14:38Z</time>
            </trkpt>
            <trkpt lon="100.964093" lat="14.526125">
                <ele>26.090000</ele>
                <time>2016-04-24T03:15:15Z</time>
            </trkpt>
            <trkpt lon="100.964158" lat="14.526181">
                <ele>25.610000</ele>
                <time>2016-04-24T03:15:17Z</time>
            </trkpt>
            <trkpt lon="100.968303" lat="14.526128">
                <ele>24.170000</ele>
                <time>2016-04-24T03:16:38Z</time>
            </trkpt>
            <trkpt lon="100.968243" lat="14.524893">
                <ele>24.650000</ele>
                <time>2016-04-24T03:17:10Z</time>
            </trkpt>
            <trkpt lon="100.968451" lat="14.523234">
                <ele>25.610000</ele>
                <time>2016-04-24T03:17:56Z</time>
            </trkpt>
            <trkpt lon="100.967570" lat="14.523029">
                <ele>25.130000</ele>
                <time>2016-04-24T03:18:21Z</time>
            </trkpt>
            <trkpt lon="100.967048" lat="14.522541">
                <ele>24.650000</ele>
                <time>2016-04-24T03:18:42Z</time>
            </trkpt>
            <trkpt lon="100.966674" lat="14.522413">
                <ele>25.130000</ele>
                <time>2016-04-24T03:18:53Z</time>
            </trkpt>
            <trkpt lon="100.965327" lat="14.522526">
                <ele>25.130000</ele>
                <time>2016-04-24T03:19:40Z</time>
            </trkpt>
            <trkpt lon="100.965196" lat="14.522610">
                <ele>25.130000</ele>
                <time>2016-04-24T03:20:03Z</time>
            </trkpt>
            <trkpt lon="100.966875" lat="14.522420">
                <ele>24.650000</ele>
                <time>2016-04-24T03:21:27Z</time>
            </trkpt>
            <trkpt lon="100.967392" lat="14.522796">
                <ele>25.610000</ele>
                <time>2016-04-24T03:21:53Z</time>
            </trkpt>
            <trkpt lon="100.967507" lat="14.522996">
                <ele>25.610000</ele>
                <time>2016-04-24T03:22:00Z</time>
            </trkpt>
            <trkpt lon="100.968729" lat="14.523219">
                <ele>25.610000</ele>
                <time>2016-04-24T03:22:37Z</time>
            </trkpt>
            <trkpt lon="100.969979" lat="14.523362">
                <ele>25.130000</ele>
                <time>2016-04-24T03:23:07Z</time>
            </trkpt>
            <trkpt lon="100.969768" lat="14.521528">
                <ele>24.650000</ele>
                <time>2016-04-24T03:24:01Z</time>
            </trkpt>
            <trkpt lon="100.969949" lat="14.520234">
                <ele>25.610000</ele>
                <time>2016-04-24T03:24:36Z</time>
            </trkpt>
            <trkpt lon="100.970443" lat="14.519729">
                <ele>26.090000</ele>
                <time>2016-04-24T03:24:54Z</time>
            </trkpt>
            <trkpt lon="100.970766" lat="14.519273">
                <ele>25.610000</ele>
                <time>2016-04-24T03:25:10Z</time>
            </trkpt>
            <trkpt lon="100.970461" lat="14.518708">
                <ele>25.610000</ele>
                <time>2016-04-24T03:25:27Z</time>
            </trkpt>
            <trkpt lon="100.970597" lat="14.518601">
                <ele>25.610000</ele>
                <time>2016-04-24T03:25:33Z</time>
            </trkpt>
            <trkpt lon="100.972182" lat="14.518278">
                <ele>26.090000</ele>
                <time>2016-04-24T03:26:25Z</time>
            </trkpt>
            <trkpt lon="100.972355" lat="14.518229">
                <ele>25.610000</ele>
                <time>2016-04-24T03:26:31Z</time>
            </trkpt>
            <trkpt lon="100.971837" lat="14.517394">
                <ele>26.090000</ele>
                <time>2016-04-24T03:27:08Z</time>
            </trkpt>
            <trkpt lon="100.971397" lat="14.517563">
                <ele>25.610000</ele>
                <time>2016-04-24T03:28:16Z</time>
            </trkpt>
            <trkpt lon="100.971297" lat="14.517477">
                <ele>25.130000</ele>
                <time>2016-04-24T03:28:21Z</time>
            </trkpt>
            <trkpt lon="100.971094" lat="14.517159">
                <ele>26.090000</ele>
                <time>2016-04-24T03:28:34Z</time>
            </trkpt>
            <trkpt lon="100.970886" lat="14.517207">
                <ele>25.610000</ele>
                <time>2016-04-24T03:28:43Z</time>
            </trkpt>
            <trkpt lon="100.970732" lat="14.516376">
                <ele>25.130000</ele>
                <time>2016-04-24T03:29:14Z</time>
            </trkpt>
            <trkpt lon="100.970726" lat="14.516013">
                <ele>26.090000</ele>
                <time>2016-04-24T03:29:28Z</time>
            </trkpt>
            <trkpt lon="100.971302" lat="14.515661">
                <ele>26.090000</ele>
                <time>2016-04-24T03:29:54Z</time>
            </trkpt>
            <trkpt lon="100.970718" lat="14.514706">
                <ele>25.130000</ele>
                <time>2016-04-24T03:30:30Z</time>
            </trkpt>
            <trkpt lon="100.971961" lat="14.514143">
                <ele>26.090000</ele>
                <time>2016-04-24T03:31:07Z</time>
            </trkpt>
            <trkpt lon="100.972340" lat="14.513705">
                <ele>26.570000</ele>
                <time>2016-04-24T03:31:24Z</time>
            </trkpt>
            <trkpt lon="100.972192" lat="14.513150">
                <ele>26.570000</ele>
                <time>2016-04-24T03:31:42Z</time>
            </trkpt>
            <trkpt lon="100.971721" lat="14.512297">
                <ele>27.530000</ele>
                <time>2016-04-24T03:32:05Z</time>
            </trkpt>
            <trkpt lon="100.969921" lat="14.511488">
                <ele>27.050000</ele>
                <time>2016-04-24T03:32:45Z</time>
            </trkpt>
            <trkpt lon="100.969901" lat="14.511448">
                <ele>26.570000</ele>
                <time>2016-04-24T03:32:46Z</time>
            </trkpt>
            <trkpt lon="100.969809" lat="14.511350">
                <ele>27.050000</ele>
                <time>2016-04-24T03:32:49Z</time>
            </trkpt>
            <trkpt lon="100.969689" lat="14.511247">
                <ele>27.530000</ele>
                <time>2016-04-24T03:32:53Z</time>
            </trkpt>
            <trkpt lon="100.969699" lat="14.511179">
                <ele>28.020000</ele>
                <time>2016-04-24T03:32:55Z</time>
            </trkpt>
            <trkpt lon="100.969757" lat="14.511130">
                <ele>28.500000</ele>
                <time>2016-04-24T03:32:57Z</time>
            </trkpt>
            <trkpt lon="100.972307" lat="14.509676">
                <ele>28.980000</ele>
                <time>2016-04-24T03:34:01Z</time>
            </trkpt>
            <trkpt lon="100.971914" lat="14.508213">
                <ele>26.090000</ele>
                <time>2016-04-24T03:34:39Z</time>
            </trkpt>
            <trkpt lon="100.972217" lat="14.508011">
                <ele>26.090000</ele>
                <time>2016-04-24T03:34:46Z</time>
            </trkpt>
            <trkpt lon="100.972324" lat="14.508125">
                <ele>28.020000</ele>
                <time>2016-04-24T03:34:50Z</time>
            </trkpt>
            <trkpt lon="100.972678" lat="14.509657">
                <ele>28.980000</ele>
                <time>2016-04-24T03:35:28Z</time>
            </trkpt>
            <trkpt lon="100.972773" lat="14.509658">
                <ele>28.500000</ele>
                <time>2016-04-24T03:35:30Z</time>
            </trkpt>
            <trkpt lon="100.972867" lat="14.509616">
                <ele>28.020000</ele>
                <time>2016-04-24T03:35:32Z</time>
            </trkpt>
            <trkpt lon="100.973660" lat="14.509337">
                <ele>28.500000</ele>
                <time>2016-04-24T03:35:51Z</time>
            </trkpt>
            <trkpt lon="100.973747" lat="14.509423">
                <ele>28.500000</ele>
                <time>2016-04-24T03:36:01Z</time>
            </trkpt>
            <trkpt lon="100.973656" lat="14.509292">
                <ele>28.500000</ele>
                <time>2016-04-24T03:36:11Z</time>
            </trkpt>
            <trkpt lon="100.973977" lat="14.509155">
                <ele>28.980000</ele>
                <time>2016-04-24T03:36:25Z</time>
            </trkpt>
            <trkpt lon="100.974901" lat="14.508879">
                <ele>28.500000</ele>
                <time>2016-04-24T03:37:05Z</time>
            </trkpt>
            <trkpt lon="100.973689" lat="14.509259">
                <ele>28.020000</ele>
                <time>2016-04-24T03:37:59Z</time>
            </trkpt>
            <trkpt lon="100.973703" lat="14.509375">
                <ele>28.500000</ele>
                <time>2016-04-24T03:38:04Z</time>
            </trkpt>
            <trkpt lon="100.974211" lat="14.510010">
                <ele>28.500000</ele>
                <time>2016-04-24T03:38:25Z</time>
            </trkpt>
            <trkpt lon="100.974855" lat="14.509645">
                <ele>28.020000</ele>
                <time>2016-04-24T03:38:49Z</time>
            </trkpt>
            <trkpt lon="100.975282" lat="14.510364">
                <ele>27.530000</ele>
                <time>2016-04-24T03:39:12Z</time>
            </trkpt>
            <trkpt lon="100.975352" lat="14.510726">
                <ele>27.050000</ele>
                <time>2016-04-24T03:39:25Z</time>
            </trkpt>
            <trkpt lon="100.975373" lat="14.511201">
                <ele>28.020000</ele>
                <time>2016-04-24T03:39:43Z</time>
            </trkpt>
            <trkpt lon="100.976076" lat="14.511083">
                <ele>27.050000</ele>
                <time>2016-04-24T03:40:04Z</time>
            </trkpt>
            <trkpt lon="100.978706" lat="14.510181">
                <ele>27.050000</ele>
                <time>2016-04-24T03:41:22Z</time>
            </trkpt>
            <trkpt lon="100.979545" lat="14.510012">
                <ele>27.050000</ele>
                <time>2016-04-24T03:41:46Z</time>
            </trkpt>
            <trkpt lon="100.978587" lat="14.508092">
                <ele>27.050000</ele>
                <time>2016-04-24T03:42:49Z</time>
            </trkpt>
            <trkpt lon="100.978695" lat="14.507886">
                <ele>28.500000</ele>
                <time>2016-04-24T03:42:58Z</time>
            </trkpt>
            <trkpt lon="100.979616" lat="14.507689">
                <ele>27.050000</ele>
                <time>2016-04-24T03:43:21Z</time>
            </trkpt>
            <trkpt lon="100.982026" lat="14.506794">
                <ele>28.980000</ele>
                <time>2016-04-24T03:44:16Z</time>
            </trkpt>
            <trkpt lon="100.982829" lat="14.506652">
                <ele>29.460000</ele>
                <time>2016-04-24T03:44:34Z</time>
            </trkpt>
            <trkpt lon="100.984973" lat="14.505089">
                <ele>29.460000</ele>
                <time>2016-04-24T03:45:37Z</time>
            </trkpt>
            <trkpt lon="100.985650" lat="14.504723">
                <ele>29.460000</ele>
                <time>2016-04-24T03:45:54Z</time>
            </trkpt>
            <trkpt lon="100.988181" lat="14.504007">
                <ele>30.420000</ele>
                <time>2016-04-24T03:46:49Z</time>
            </trkpt>
            <trkpt lon="100.988778" lat="14.503940">
                <ele>29.460000</ele>
                <time>2016-04-24T03:47:01Z</time>
            </trkpt>
            <trkpt lon="100.990740" lat="14.504278">
                <ele>31.380000</ele>
                <time>2016-04-24T03:47:44Z</time>
            </trkpt>
            <trkpt lon="100.990713" lat="14.504362">
                <ele>31.860000</ele>
                <time>2016-04-24T03:47:48Z</time>
            </trkpt>
            <trkpt lon="100.990535" lat="14.505020">
                <ele>30.900000</ele>
                <time>2016-04-24T03:48:06Z</time>
            </trkpt>
            <trkpt lon="100.990521" lat="14.505523">
                <ele>30.900000</ele>
                <time>2016-04-24T03:48:18Z</time>
            </trkpt>
            <trkpt lon="100.990799" lat="14.506446">
                <ele>33.300000</ele>
                <time>2016-04-24T03:48:45Z</time>
            </trkpt>
            <trkpt lon="100.991601" lat="14.508495">
                <ele>30.420000</ele>
                <time>2016-04-24T03:49:42Z</time>
            </trkpt>
            <trkpt lon="100.992081" lat="14.508035">
                <ele>32.820000</ele>
                <time>2016-04-24T03:50:13Z</time>
            </trkpt>
            <trkpt lon="100.992201" lat="14.507732">
                <ele>35.230000</ele>
                <time>2016-04-24T03:50:39Z</time>
            </trkpt>
            <trkpt lon="100.992326" lat="14.507517">
                <ele>38.590000</ele>
                <time>2016-04-24T03:51:11Z</time>
            </trkpt>
            <trkpt lon="100.992298" lat="14.507298">
                <ele>42.440000</ele>
                <time>2016-04-24T03:51:51Z</time>
            </trkpt>
            <trkpt lon="100.992520" lat="14.507065">
                <ele>47.720000</ele>
                <time>2016-04-24T03:52:39Z</time>
            </trkpt>
            <trkpt lon="100.992779" lat="14.507119">
                <ele>46.760000</ele>
                <time>2016-04-24T03:53:31Z</time>
            </trkpt>
            <trkpt lon="100.992966" lat="14.507244">
                <ele>40.990000</ele>
                <time>2016-04-24T03:53:43Z</time>
            </trkpt>
            <trkpt lon="100.993200" lat="14.507461">
                <ele>36.190000</ele>
                <time>2016-04-24T03:53:59Z</time>
            </trkpt>
            <trkpt lon="100.993614" lat="14.507491">
                <ele>36.190000</ele>
                <time>2016-04-24T03:54:27Z</time>
            </trkpt>
            <trkpt lon="100.994027" lat="14.506458">
                <ele>40.510000</ele>
                <time>2016-04-24T03:55:48Z</time>
            </trkpt>
            <trkpt lon="100.994286" lat="14.506380">
                <ele>40.510000</ele>
                <time>2016-04-24T03:56:06Z</time>
            </trkpt>
            <trkpt lon="100.994514" lat="14.506531">
                <ele>39.550000</ele>
                <time>2016-04-24T03:56:20Z</time>
            </trkpt>
            <trkpt lon="100.994606" lat="14.506798">
                <ele>39.550000</ele>
                <time>2016-04-24T03:56:28Z</time>
            </trkpt>
            <trkpt lon="100.994783" lat="14.507043">
                <ele>37.630000</ele>
                <time>2016-04-24T03:56:35Z</time>
            </trkpt>
            <trkpt lon="100.995163" lat="14.507044">
                <ele>37.630000</ele>
                <time>2016-04-24T03:56:50Z</time>
            </trkpt>
            <trkpt lon="100.996057" lat="14.506755">
                <ele>40.030000</ele>
                <time>2016-04-24T03:57:29Z</time>
            </trkpt>
            <trkpt lon="100.996547" lat="14.506629">
                <ele>39.550000</ele>
                <time>2016-04-24T03:58:00Z</time>
            </trkpt>
            <trkpt lon="100.996552" lat="14.506575">
                <ele>39.070000</ele>
                <time>2016-04-24T03:58:53Z</time>
            </trkpt>
            <trkpt lon="100.997202" lat="14.506546">
                <ele>41.950000</ele>
                <time>2016-04-24T03:59:36Z</time>
            </trkpt>
            <trkpt lon="100.997377" lat="14.506535">
                <ele>41.950000</ele>
                <time>2016-04-24T03:59:46Z</time>
            </trkpt>
            <trkpt lon="100.997825" lat="14.506759">
                <ele>43.400000</ele>
                <time>2016-04-24T04:00:12Z</time>
            </trkpt>
            <trkpt lon="100.998096" lat="14.506835">
                <ele>40.990000</ele>
                <time>2016-04-24T04:00:23Z</time>
            </trkpt>
            <trkpt lon="100.997875" lat="14.507424">
                <ele>39.550000</ele>
                <time>2016-04-24T04:01:07Z</time>
            </trkpt>
            <trkpt lon="100.998448" lat="14.507731">
                <ele>46.280000</ele>
                <time>2016-04-24T04:02:25Z</time>
            </trkpt>
            <trkpt lon="100.998680" lat="14.508074">
                <ele>40.510000</ele>
                <time>2016-04-24T04:02:41Z</time>
            </trkpt>
            <trkpt lon="100.998672" lat="14.508373">
                <ele>37.150000</ele>
                <time>2016-04-24T04:02:50Z</time>
            </trkpt>
            <trkpt lon="100.999323" lat="14.508554">
                <ele>37.150000</ele>
                <time>2016-04-24T04:03:17Z</time>
            </trkpt>
            <trkpt lon="100.999768" lat="14.508294">
                <ele>40.030000</ele>
                <time>2016-04-24T04:03:51Z</time>
            </trkpt>
            <trkpt lon="101.000278" lat="14.507856">
                <ele>42.920000</ele>
                <time>2016-04-24T04:04:37Z</time>
            </trkpt>
            <trkpt lon="101.000831" lat="14.507559">
                <ele>46.760000</ele>
                <time>2016-04-24T04:05:19Z</time>
            </trkpt>
            <trkpt lon="101.001027" lat="14.507673">
                <ele>45.320000</ele>
                <time>2016-04-24T04:05:27Z</time>
            </trkpt>
            <trkpt lon="101.003976" lat="14.507774">
                <ele>40.030000</ele>
                <time>2016-04-24T04:06:45Z</time>
            </trkpt>
            <trkpt lon="101.004186" lat="14.507522">
                <ele>46.760000</ele>
                <time>2016-04-24T04:06:59Z</time>
            </trkpt>
            <trkpt lon="101.004203" lat="14.507503">
                <ele>41.470000</ele>
                <time>2016-04-24T04:07:00Z</time>
            </trkpt>
            <trkpt lon="101.004775" lat="14.506556">
                <ele>45.320000</ele>
                <time>2016-04-24T04:07:51Z</time>
            </trkpt>
            <trkpt lon="101.005096" lat="14.505888">
                <ele>47.720000</ele>
                <time>2016-04-24T04:08:33Z</time>
            </trkpt>
            <trkpt lon="101.006201" lat="14.505489">
                <ele>50.610000</ele>
                <time>2016-04-24T04:09:42Z</time>
            </trkpt>
            <trkpt lon="101.008133" lat="14.504703">
                <ele>47.240000</ele>
                <time>2016-04-24T04:10:43Z</time>
            </trkpt>
            <trkpt lon="101.008380" lat="14.504855">
                <ele>46.760000</ele>
                <time>2016-04-24T04:10:56Z</time>
            </trkpt>
            <trkpt lon="101.009615" lat="14.504819">
                <ele>57.340000</ele>
                <time>2016-04-24T04:12:27Z</time>
            </trkpt>
            <trkpt lon="101.009659" lat="14.505942">
                <ele>57.340000</ele>
                <time>2016-04-24T04:13:52Z</time>
            </trkpt>
            <trkpt lon="101.009755" lat="14.505969">
                <ele>60.220000</ele>
                <time>2016-04-24T04:14:11Z</time>
            </trkpt>
            <trkpt lon="101.009897" lat="14.506214">
                <ele>61.660000</ele>
                <time>2016-04-24T04:14:53Z</time>
            </trkpt>
            <trkpt lon="101.010208" lat="14.506896">
                <ele>58.780000</ele>
                <time>2016-04-24T04:15:21Z</time>
            </trkpt>
            <trkpt lon="101.010083" lat="14.507156">
                <ele>52.530000</ele>
                <time>2016-04-24T04:15:33Z</time>
            </trkpt>
            <trkpt lon="101.010937" lat="14.507454">
                <ele>50.610000</ele>
                <time>2016-04-24T04:15:59Z</time>
            </trkpt>
            <trkpt lon="101.011155" lat="14.507891">
                <ele>46.760000</ele>
                <time>2016-04-24T04:16:16Z</time>
            </trkpt>
            <trkpt lon="101.012296" lat="14.507207">
                <ele>47.720000</ele>
                <time>2016-04-24T04:17:27Z</time>
            </trkpt>
            <trkpt lon="101.012582" lat="14.507481">
                <ele>45.800000</ele>
                <time>2016-04-24T04:17:39Z</time>
            </trkpt>
            <trkpt lon="101.012819" lat="14.507853">
                <ele>42.440000</ele>
                <time>2016-04-24T04:17:46Z</time>
            </trkpt>
            <trkpt lon="101.013181" lat="14.508411">
                <ele>40.030000</ele>
                <time>2016-04-24T04:17:57Z</time>
            </trkpt>
            <trkpt lon="101.015054" lat="14.507450">
                <ele>36.190000</ele>
                <time>2016-04-24T04:18:46Z</time>
            </trkpt>
            <trkpt lon="101.016232" lat="14.507046">
                <ele>35.230000</ele>
                <time>2016-04-24T04:19:08Z</time>
            </trkpt>
            <trkpt lon="101.020556" lat="14.506951">
                <ele>35.710000</ele>
                <time>2016-04-24T04:20:33Z</time>
            </trkpt>
            <trkpt lon="101.020747" lat="14.506750">
                <ele>35.710000</ele>
                <time>2016-04-24T04:20:42Z</time>
            </trkpt>
            <trkpt lon="101.021346" lat="14.505507">
                <ele>34.740000</ele>
                <time>2016-04-24T04:31:30Z</time>
            </trkpt>
            <trkpt lon="101.020794" lat="14.504852">
                <ele>34.260000</ele>
                <time>2016-04-24T04:31:53Z</time>
            </trkpt>
            <trkpt lon="101.019654" lat="14.503845">
                <ele>34.260000</ele>
                <time>2016-04-24T04:32:33Z</time>
            </trkpt>
            <trkpt lon="101.019369" lat="14.502906">
                <ele>34.740000</ele>
                <time>2016-04-24T04:33:01Z</time>
            </trkpt>
            <trkpt lon="101.019270" lat="14.502359">
                <ele>33.300000</ele>
                <time>2016-04-24T04:33:16Z</time>
            </trkpt>
            <trkpt lon="101.018908" lat="14.502050">
                <ele>33.300000</ele>
                <time>2016-04-24T04:33:30Z</time>
            </trkpt>
            <trkpt lon="101.017640" lat="14.502270">
                <ele>34.740000</ele>
                <time>2016-04-24T04:34:05Z</time>
            </trkpt>
            <trkpt lon="101.015781" lat="14.502815">
                <ele>32.820000</ele>
                <time>2016-04-24T04:34:55Z</time>
            </trkpt>
            <trkpt lon="101.015347" lat="14.502837">
                <ele>33.300000</ele>
                <time>2016-04-24T04:35:08Z</time>
            </trkpt>
            <trkpt lon="101.015147" lat="14.502529">
                <ele>33.300000</ele>
                <time>2016-04-24T04:35:19Z</time>
            </trkpt>
            <trkpt lon="101.014561" lat="14.502362">
                <ele>35.230000</ele>
                <time>2016-04-24T04:35:46Z</time>
            </trkpt>
            <trkpt lon="101.013486" lat="14.502080">
                <ele>35.710000</ele>
                <time>2016-04-24T04:36:40Z</time>
            </trkpt>
            <trkpt lon="101.012862" lat="14.501714">
                <ele>36.190000</ele>
                <time>2016-04-24T04:37:09Z</time>
            </trkpt>
            <trkpt lon="101.012053" lat="14.501468">
                <ele>35.710000</ele>
                <time>2016-04-24T04:37:39Z</time>
            </trkpt>
            <trkpt lon="101.011326" lat="14.501065">
                <ele>32.820000</ele>
                <time>2016-04-24T04:38:07Z</time>
            </trkpt>
            <trkpt lon="101.010325" lat="14.500825">
                <ele>34.260000</ele>
                <time>2016-04-24T04:38:40Z</time>
            </trkpt>
            <trkpt lon="101.009764" lat="14.500869">
                <ele>36.190000</ele>
                <time>2016-04-24T04:39:07Z</time>
            </trkpt>
            <trkpt lon="101.009378" lat="14.500860">
                <ele>35.710000</ele>
                <time>2016-04-24T04:39:24Z</time>
            </trkpt>
            <trkpt lon="101.009359" lat="14.500864">
                <ele>30.900000</ele>
                <time>2016-04-24T04:39:25Z</time>
            </trkpt>
            <trkpt lon="101.009342" lat="14.500870">
                <ele>36.670000</ele>
                <time>2016-04-24T04:39:26Z</time>
            </trkpt>
            <trkpt lon="101.009271" lat="14.500901">
                <ele>36.190000</ele>
                <time>2016-04-24T04:39:30Z</time>
            </trkpt>
            <trkpt lon="101.008830" lat="14.501298">
                <ele>37.150000</ele>
                <time>2016-04-24T04:40:00Z</time>
            </trkpt>
            <trkpt lon="101.008640" lat="14.501433">
                <ele>37.150000</ele>
                <time>2016-04-24T04:40:13Z</time>
            </trkpt>
            <trkpt lon="101.008505" lat="14.501421">
                <ele>37.150000</ele>
                <time>2016-04-24T04:40:54Z</time>
            </trkpt>
            <trkpt lon="101.008506" lat="14.501422">
                <ele>39.070000</ele>
                <time>2016-04-24T04:41:27Z</time>
            </trkpt>
            <trkpt lon="101.008522" lat="14.501399">
                <ele>38.590000</ele>
                <time>2016-04-24T04:41:48Z</time>
            </trkpt>
            <trkpt lon="101.008563" lat="14.501257">
                <ele>37.150000</ele>
                <time>2016-04-24T04:41:57Z</time>
            </trkpt>
            <trkpt lon="101.008792" lat="14.500824">
                <ele>36.670000</ele>
                <time>2016-04-24T04:42:14Z</time>
            </trkpt>
            <trkpt lon="101.009130" lat="14.500548">
                <ele>35.710000</ele>
                <time>2016-04-24T04:42:28Z</time>
            </trkpt>
            <trkpt lon="101.009253" lat="14.500247">
                <ele>36.190000</ele>
                <time>2016-04-24T04:42:42Z</time>
            </trkpt>
            <trkpt lon="101.009151" lat="14.499994">
                <ele>37.150000</ele>
                <time>2016-04-24T04:42:57Z</time>
            </trkpt>
            <trkpt lon="101.008872" lat="14.499903">
                <ele>40.030000</ele>
                <time>2016-04-24T04:43:17Z</time>
            </trkpt>
            <trkpt lon="101.008779" lat="14.499894">
                <ele>40.510000</ele>
                <time>2016-04-24T04:43:29Z</time>
            </trkpt>
            <trkpt lon="101.008315" lat="14.500027">
                <ele>33.780000</ele>
                <time>2016-04-24T04:44:10Z</time>
            </trkpt>
            <trkpt lon="101.007888" lat="14.500328">
                <ele>34.740000</ele>
                <time>2016-04-24T04:44:38Z</time>
            </trkpt>
            <trkpt lon="101.007867" lat="14.500144">
                <ele>34.740000</ele>
                <time>2016-04-24T04:44:52Z</time>
            </trkpt>
            <trkpt lon="101.007787" lat="14.499659">
                <ele>33.300000</ele>
                <time>2016-04-24T04:45:10Z</time>
            </trkpt>
            <trkpt lon="101.007728" lat="14.499482">
                <ele>32.820000</ele>
                <time>2016-04-24T04:45:15Z</time>
            </trkpt>
            <trkpt lon="101.007334" lat="14.499202">
                <ele>31.860000</ele>
                <time>2016-04-24T04:45:30Z</time>
            </trkpt>
            <trkpt lon="101.005857" lat="14.499242">
                <ele>37.630000</ele>
                <time>2016-04-24T04:46:42Z</time>
            </trkpt>
            <trkpt lon="101.005458" lat="14.499273">
                <ele>37.630000</ele>
                <time>2016-04-24T04:47:01Z</time>
            </trkpt>
            <trkpt lon="101.005022" lat="14.499233">
                <ele>35.710000</ele>
                <time>2016-04-24T04:47:14Z</time>
            </trkpt>
            <trkpt lon="101.003587" lat="14.499012">
                <ele>35.710000</ele>
                <time>2016-04-24T04:48:06Z</time>
            </trkpt>
            <trkpt lon="101.003196" lat="14.499218">
                <ele>36.190000</ele>
                <time>2016-04-24T04:48:23Z</time>
            </trkpt>
            <trkpt lon="101.002386" lat="14.499517">
                <ele>35.230000</ele>
                <time>2016-04-24T04:48:48Z</time>
            </trkpt>
            <trkpt lon="101.001738" lat="14.499574">
                <ele>33.300000</ele>
                <time>2016-04-24T04:49:03Z</time>
            </trkpt>
            <trkpt lon="101.000969" lat="14.500002">
                <ele>34.740000</ele>
                <time>2016-04-24T04:49:28Z</time>
            </trkpt>
            <trkpt lon="101.000922" lat="14.500008">
                <ele>33.780000</ele>
                <time>2016-04-24T04:49:29Z</time>
            </trkpt>
            <trkpt lon="101.000551" lat="14.500022">
                <ele>33.300000</ele>
                <time>2016-04-24T04:49:37Z</time>
            </trkpt>
            <trkpt lon="100.999966" lat="14.499778">
                <ele>36.190000</ele>
                <time>2016-04-24T04:50:05Z</time>
            </trkpt>
            <trkpt lon="100.999566" lat="14.499663">
                <ele>36.670000</ele>
                <time>2016-04-24T04:50:23Z</time>
            </trkpt>
            <trkpt lon="100.999152" lat="14.499634">
                <ele>35.710000</ele>
                <time>2016-04-24T04:50:36Z</time>
            </trkpt>
            <trkpt lon="100.998506" lat="14.499950">
                <ele>34.740000</ele>
                <time>2016-04-24T04:50:58Z</time>
            </trkpt>
            <trkpt lon="100.998357" lat="14.499917">
                <ele>32.820000</ele>
                <time>2016-04-24T04:51:02Z</time>
            </trkpt>
            <trkpt lon="100.998117" lat="14.499757">
                <ele>30.900000</ele>
                <time>2016-04-24T04:51:09Z</time>
            </trkpt>
            <trkpt lon="100.997855" lat="14.499834">
                <ele>30.420000</ele>
                <time>2016-04-24T04:51:22Z</time>
            </trkpt>
            <trkpt lon="100.998073" lat="14.499751">
                <ele>30.420000</ele>
                <time>2016-04-24T04:51:36Z</time>
            </trkpt>
            <trkpt lon="100.998443" lat="14.499982">
                <ele>34.260000</ele>
                <time>2016-04-24T04:52:09Z</time>
            </trkpt>
            <trkpt lon="100.998441" lat="14.500098">
                <ele>34.740000</ele>
                <time>2016-04-24T04:52:19Z</time>
            </trkpt>
            <trkpt lon="100.998108" lat="14.500472">
                <ele>33.300000</ele>
                <time>2016-04-24T04:52:39Z</time>
            </trkpt>
            <trkpt lon="100.996694" lat="14.500838">
                <ele>36.670000</ele>
                <time>2016-04-24T04:53:51Z</time>
            </trkpt>
            <trkpt lon="100.996014" lat="14.500987">
                <ele>32.340000</ele>
                <time>2016-04-24T04:54:16Z</time>
            </trkpt>
            <trkpt lon="100.995847" lat="14.501438">
                <ele>34.740000</ele>
                <time>2016-04-24T04:54:40Z</time>
            </trkpt>
            <trkpt lon="100.995548" lat="14.501500">
                <ele>34.260000</ele>
                <time>2016-04-24T04:54:53Z</time>
            </trkpt>
            <trkpt lon="100.995225" lat="14.501712">
                <ele>33.780000</ele>
                <time>2016-04-24T04:55:09Z</time>
            </trkpt>
            <trkpt lon="100.994680" lat="14.501976">
                <ele>33.780000</ele>
                <time>2016-04-24T04:55:30Z</time>
            </trkpt>
            <trkpt lon="100.994390" lat="14.502026">
                <ele>33.300000</ele>
                <time>2016-04-24T04:55:40Z</time>
            </trkpt>
            <trkpt lon="100.994172" lat="14.501613">
                <ele>32.340000</ele>
                <time>2016-04-24T04:56:01Z</time>
            </trkpt>
            <trkpt lon="100.993463" lat="14.501476">
                <ele>28.980000</ele>
                <time>2016-04-24T04:56:41Z</time>
            </trkpt>
            <trkpt lon="100.993350" lat="14.501249">
                <ele>28.980000</ele>
                <time>2016-04-24T04:56:50Z</time>
            </trkpt>
            <trkpt lon="100.993798" lat="14.500558">
                <ele>28.980000</ele>
                <time>2016-04-24T04:57:19Z</time>
            </trkpt>
            <trkpt lon="100.993238" lat="14.499711">
                <ele>28.980000</ele>
                <time>2016-04-24T04:58:22Z</time>
            </trkpt>
            <trkpt lon="100.992980" lat="14.499429">
                <ele>28.020000</ele>
                <time>2016-04-24T04:58:38Z</time>
            </trkpt>
            <trkpt lon="100.992618" lat="14.499513">
                <ele>27.530000</ele>
                <time>2016-04-24T04:58:53Z</time>
            </trkpt>
            <trkpt lon="100.992539" lat="14.499347">
                <ele>27.050000</ele>
                <time>2016-04-24T04:59:01Z</time>
            </trkpt>
            <trkpt lon="100.992307" lat="14.499086">
                <ele>27.530000</ele>
                <time>2016-04-24T04:59:19Z</time>
            </trkpt>
            <trkpt lon="100.992108" lat="14.499262">
                <ele>28.020000</ele>
                <time>2016-04-24T04:59:33Z</time>
            </trkpt>
            <trkpt lon="100.991964" lat="14.499660">
                <ele>27.530000</ele>
                <time>2016-04-24T04:59:49Z</time>
            </trkpt>
            <trkpt lon="100.991344" lat="14.500983">
                <ele>29.940000</ele>
                <time>2016-04-24T05:01:22Z</time>
            </trkpt>
            <trkpt lon="100.991334" lat="14.501027">
                <ele>28.020000</ele>
                <time>2016-04-24T05:01:27Z</time>
            </trkpt>
            <trkpt lon="100.990941" lat="14.501318">
                <ele>28.500000</ele>
                <time>2016-04-24T05:02:01Z</time>
            </trkpt>
            <trkpt lon="100.991583" lat="14.502196">
                <ele>28.500000</ele>
                <time>2016-04-24T05:02:43Z</time>
            </trkpt>
            <trkpt lon="100.991572" lat="14.502418">
                <ele>28.500000</ele>
                <time>2016-04-24T05:02:50Z</time>
            </trkpt>
            <trkpt lon="100.991339" lat="14.502690">
                <ele>29.940000</ele>
                <time>2016-04-24T05:02:59Z</time>
            </trkpt>
            <trkpt lon="100.990077" lat="14.501148">
                <ele>29.460000</ele>
                <time>2016-04-24T05:04:04Z</time>
            </trkpt>
            <trkpt lon="100.990108" lat="14.500940">
                <ele>29.940000</ele>
                <time>2016-04-24T05:04:14Z</time>
            </trkpt>
            <trkpt lon="100.989936" lat="14.500727">
                <ele>30.420000</ele>
                <time>2016-04-24T05:04:26Z</time>
            </trkpt>
            <trkpt lon="100.989734" lat="14.500802">
                <ele>29.940000</ele>
                <time>2016-04-24T05:04:34Z</time>
            </trkpt>
            <trkpt lon="100.988990" lat="14.501195">
                <ele>25.610000</ele>
                <time>2016-04-24T05:05:12Z</time>
            </trkpt>
            <trkpt lon="100.988779" lat="14.501087">
                <ele>27.530000</ele>
                <time>2016-04-24T05:05:36Z</time>
            </trkpt>
            <trkpt lon="100.988226" lat="14.500815">
                <ele>27.050000</ele>
                <time>2016-04-24T05:06:09Z</time>
            </trkpt>
            <trkpt lon="100.989022" lat="14.500258">
                <ele>28.500000</ele>
                <time>2016-04-24T05:06:50Z</time>
            </trkpt>
            <trkpt lon="100.989725" lat="14.499870">
                <ele>28.020000</ele>
                <time>2016-04-24T05:07:16Z</time>
            </trkpt>
            <trkpt lon="100.989404" lat="14.499353">
                <ele>27.530000</ele>
                <time>2016-04-24T05:07:34Z</time>
            </trkpt>
            <trkpt lon="100.989143" lat="14.499217">
                <ele>28.020000</ele>
                <time>2016-04-24T05:07:46Z</time>
            </trkpt>
            <trkpt lon="100.988910" lat="14.498369">
                <ele>28.980000</ele>
                <time>2016-04-24T05:08:16Z</time>
            </trkpt>
            <trkpt lon="100.988715" lat="14.497534">
                <ele>28.500000</ele>
                <time>2016-04-24T05:08:40Z</time>
            </trkpt>
            <trkpt lon="100.988441" lat="14.496685">
                <ele>29.460000</ele>
                <time>2016-04-24T05:09:04Z</time>
            </trkpt>
            <trkpt lon="100.988272" lat="14.496161">
                <ele>28.980000</ele>
                <time>2016-04-24T05:09:21Z</time>
            </trkpt>
            <trkpt lon="100.987378" lat="14.496154">
                <ele>29.460000</ele>
                <time>2016-04-24T05:09:57Z</time>
            </trkpt>
            <trkpt lon="100.985678" lat="14.496826">
                <ele>29.460000</ele>
                <time>2016-04-24T05:10:43Z</time>
            </trkpt>
            <trkpt lon="100.984625" lat="14.497020">
                <ele>28.020000</ele>
                <time>2016-04-24T05:11:11Z</time>
            </trkpt>
            <trkpt lon="100.984745" lat="14.490636">
                <ele>27.050000</ele>
                <time>2016-04-24T05:14:28Z</time>
            </trkpt>
            <trkpt lon="100.984687" lat="14.490460">
                <ele>28.020000</ele>
                <time>2016-04-24T05:14:35Z</time>
            </trkpt>
            <trkpt lon="100.984435" lat="14.490436">
                <ele>28.020000</ele>
                <time>2016-04-24T05:14:44Z</time>
            </trkpt>
            <trkpt lon="100.984401" lat="14.489450">
                <ele>28.500000</ele>
                <time>2016-04-24T05:15:17Z</time>
            </trkpt>
            <trkpt lon="100.984153" lat="14.489343">
                <ele>27.530000</ele>
                <time>2016-04-24T05:15:25Z</time>
            </trkpt>
            <trkpt lon="100.983765" lat="14.488907">
                <ele>28.500000</ele>
                <time>2016-04-24T05:15:43Z</time>
            </trkpt>
            <trkpt lon="100.983486" lat="14.488916">
                <ele>28.020000</ele>
                <time>2016-04-24T05:15:55Z</time>
            </trkpt>
            <trkpt lon="100.983314" lat="14.488576">
                <ele>28.500000</ele>
                <time>2016-04-24T05:16:08Z</time>
            </trkpt>
            <trkpt lon="100.982990" lat="14.487950">
                <ele>27.530000</ele>
                <time>2016-04-24T05:16:30Z</time>
            </trkpt>
            <trkpt lon="100.982707" lat="14.488083">
                <ele>37.630000</ele>
                <time>2016-04-24T05:16:40Z</time>
            </trkpt>
            <trkpt lon="100.977995" lat="14.490497">
                <ele>27.530000</ele>
                <time>2016-04-24T05:18:52Z</time>
            </trkpt>
            <trkpt lon="100.974515" lat="14.491916">
                <ele>27.050000</ele>
                <time>2016-04-24T05:20:16Z</time>
            </trkpt>
            <trkpt lon="100.971967" lat="14.493400">
                <ele>27.050000</ele>
                <time>2016-04-24T05:21:24Z</time>
            </trkpt>
            <trkpt lon="100.971547" lat="14.493493">
                <ele>26.570000</ele>
                <time>2016-04-24T05:21:34Z</time>
            </trkpt>
            <trkpt lon="100.971022" lat="14.493844">
                <ele>26.570000</ele>
                <time>2016-04-24T05:21:51Z</time>
            </trkpt>
            <trkpt lon="100.970892" lat="14.494977">
                <ele>27.530000</ele>
                <time>2016-04-24T05:22:19Z</time>
            </trkpt>
            <trkpt lon="100.968717" lat="14.495074">
                <ele>27.050000</ele>
                <time>2016-04-24T05:23:17Z</time>
            </trkpt>
            <trkpt lon="100.968984" lat="14.496104">
                <ele>27.530000</ele>
                <time>2016-04-24T05:23:43Z</time>
            </trkpt>
            <trkpt lon="100.969167" lat="14.496512">
                <ele>27.050000</ele>
                <time>2016-04-24T05:23:52Z</time>
            </trkpt>
            <trkpt lon="100.969159" lat="14.496775">
                <ele>25.130000</ele>
                <time>2016-04-24T05:23:58Z</time>
            </trkpt>
            <trkpt lon="100.968734" lat="14.496743">
                <ele>25.610000</ele>
                <time>2016-04-24T05:24:08Z</time>
            </trkpt>
            <trkpt lon="100.968351" lat="14.495169">
                <ele>27.050000</ele>
                <time>2016-04-24T05:24:58Z</time>
            </trkpt>
            <trkpt lon="100.968279" lat="14.495151">
                <ele>26.570000</ele>
                <time>2016-04-24T05:25:00Z</time>
            </trkpt>
            <trkpt lon="100.965950" lat="14.496217">
                <ele>26.570000</ele>
                <time>2016-04-24T05:25:59Z</time>
            </trkpt>
            <trkpt lon="100.964327" lat="14.496782">
                <ele>25.610000</ele>
                <time>2016-04-24T05:26:37Z</time>
            </trkpt>
            <trkpt lon="100.961100" lat="14.496809">
                <ele>26.090000</ele>
                <time>2016-04-24T05:27:51Z</time>
            </trkpt>
            <trkpt lon="100.960875" lat="14.497070">
                <ele>26.090000</ele>
                <time>2016-04-24T05:28:01Z</time>
            </trkpt>
            <trkpt lon="100.960790" lat="14.499124">
                <ele>24.650000</ele>
                <time>2016-04-24T05:28:45Z</time>
            </trkpt>
            <trkpt lon="100.959550" lat="14.500221">
                <ele>24.650000</ele>
                <time>2016-04-24T05:29:18Z</time>
            </trkpt>
            <trkpt lon="100.959073" lat="14.500882">
                <ele>25.610000</ele>
                <time>2016-04-24T05:29:35Z</time>
            </trkpt>
            <trkpt lon="100.958091" lat="14.501242">
                <ele>24.650000</ele>
                <time>2016-04-24T05:29:59Z</time>
            </trkpt>
            <trkpt lon="100.957032" lat="14.502229">
                <ele>25.130000</ele>
                <time>2016-04-24T05:30:35Z</time>
            </trkpt>
            <trkpt lon="100.956708" lat="14.502282">
                <ele>25.610000</ele>
                <time>2016-04-24T05:30:44Z</time>
            </trkpt>
            <trkpt lon="100.956017" lat="14.502744">
                <ele>25.610000</ele>
                <time>2016-04-24T05:31:07Z</time>
            </trkpt>
            <trkpt lon="100.955877" lat="14.502904">
                <ele>25.130000</ele>
                <time>2016-04-24T05:31:15Z</time>
            </trkpt>
            <trkpt lon="100.955851" lat="14.503555">
                <ele>26.090000</ele>
                <time>2016-04-24T05:31:37Z</time>
            </trkpt>
            <trkpt lon="100.955981" lat="14.504057">
                <ele>25.610000</ele>
                <time>2016-04-24T05:31:56Z</time>
            </trkpt>
            <trkpt lon="100.955819" lat="14.504377">
                <ele>24.650000</ele>
                <time>2016-04-24T05:32:09Z</time>
            </trkpt>
            <trkpt lon="100.955480" lat="14.504669">
                <ele>25.130000</ele>
                <time>2016-04-24T05:32:24Z</time>
            </trkpt>
            <trkpt lon="100.955268" lat="14.504655">
                <ele>25.610000</ele>
                <time>2016-04-24T05:32:33Z</time>
            </trkpt>
            <trkpt lon="100.955114" lat="14.505022">
                <ele>25.610000</ele>
                <time>2016-04-24T05:32:50Z</time>
            </trkpt>
            <trkpt lon="100.955040" lat="14.505165">
                <ele>24.650000</ele>
                <time>2016-04-24T05:33:15Z</time>
            </trkpt>
            <trkpt lon="100.955104" lat="14.505599">
                <ele>24.170000</ele>
                <time>2016-04-24T05:34:08Z</time>
            </trkpt>
            <trkpt lon="100.954650" lat="14.506633">
                <ele>24.170000</ele>
                <time>2016-04-24T05:34:52Z</time>
            </trkpt>
            <trkpt lon="100.955087" lat="14.506601">
                <ele>24.170000</ele>
                <time>2016-04-24T05:35:31Z</time>
            </trkpt>
            <trkpt lon="100.955375" lat="14.507141">
                <ele>25.130000</ele>
                <time>2016-04-24T05:36:15Z</time>
            </trkpt>
            <trkpt lon="100.955507" lat="14.507439">
                <ele>24.170000</ele>
                <time>2016-04-24T05:36:29Z</time>
            </trkpt>
            <trkpt lon="100.955279" lat="14.507588">
                <ele>24.650000</ele>
                <time>2016-04-24T05:37:00Z</time>
            </trkpt>
            <trkpt lon="100.955073" lat="14.507541">
                <ele>24.650000</ele>
                <time>2016-04-24T05:37:14Z</time>
            </trkpt>
            <trkpt lon="100.954864" lat="14.507461">
                <ele>24.650000</ele>
                <time>2016-04-24T05:37:25Z</time>
            </trkpt>
            <trkpt lon="100.954438" lat="14.508228">
                <ele>23.210000</ele>
                <time>2016-04-24T05:38:04Z</time>
            </trkpt>
            <trkpt lon="100.954132" lat="14.508479">
                <ele>23.210000</ele>
                <time>2016-04-24T05:38:18Z</time>
            </trkpt>
            <trkpt lon="100.953446" lat="14.508748">
                <ele>23.690000</ele>
                <time>2016-04-24T05:38:43Z</time>
            </trkpt>
            <trkpt lon="100.953509" lat="14.509184">
                <ele>23.210000</ele>
                <time>2016-04-24T05:39:05Z</time>
            </trkpt>
            <trkpt lon="100.953687" lat="14.509344">
                <ele>16.480000</ele>
                <time>2016-04-24T05:39:16Z</time>
            </trkpt>
            <trkpt lon="100.954206" lat="14.509412">
                <ele>23.690000</ele>
                <time>2016-04-24T05:39:40Z</time>
            </trkpt>
            <trkpt lon="100.954312" lat="14.509794">
                <ele>23.690000</ele>
                <time>2016-04-24T05:39:56Z</time>
            </trkpt>
            <trkpt lon="100.954214" lat="14.510003">
                <ele>23.690000</ele>
                <time>2016-04-24T05:40:06Z</time>
            </trkpt>
            <trkpt lon="100.954107" lat="14.510347">
                <ele>24.170000</ele>
                <time>2016-04-24T05:40:20Z</time>
            </trkpt>
            <trkpt lon="100.954017" lat="14.510857">
                <ele>23.690000</ele>
                <time>2016-04-24T05:41:02Z</time>
            </trkpt>
            <trkpt lon="100.953930" lat="14.511066">
                <ele>23.690000</ele>
                <time>2016-04-24T05:41:16Z</time>
            </trkpt>
            <trkpt lon="100.953911" lat="14.511234">
                <ele>22.730000</ele>
                <time>2016-04-24T05:41:27Z</time>
            </trkpt>
            <trkpt lon="100.954159" lat="14.511435">
                <ele>23.210000</ele>
                <time>2016-04-24T05:41:48Z</time>
            </trkpt>
            <trkpt lon="100.953588" lat="14.512171">
                <ele>23.690000</ele>
                <time>2016-04-24T05:42:37Z</time>
            </trkpt>
            <trkpt lon="100.953380" lat="14.512262">
                <ele>24.170000</ele>
                <time>2016-04-24T05:42:49Z</time>
            </trkpt>
            <trkpt lon="100.953059" lat="14.512103">
                <ele>23.690000</ele>
                <time>2016-04-24T05:43:06Z</time>
            </trkpt>
            <trkpt lon="100.952729" lat="14.512147">
                <ele>21.290000</ele>
                <time>2016-04-24T05:43:18Z</time>
            </trkpt>
            <trkpt lon="100.952288" lat="14.512889">
                <ele>24.170000</ele>
                <time>2016-04-24T05:44:01Z</time>
            </trkpt>
            <trkpt lon="100.952216" lat="14.513109">
                <ele>22.730000</ele>
                <time>2016-04-24T05:44:13Z</time>
            </trkpt>
            <trkpt lon="100.951691" lat="14.513421">
                <ele>24.650000</ele>
                <time>2016-04-24T05:44:43Z</time>
            </trkpt>
            <trkpt lon="100.950960" lat="14.513970">
                <ele>24.170000</ele>
                <time>2016-04-24T05:45:20Z</time>
            </trkpt>
            <trkpt lon="100.950402" lat="14.514093">
                <ele>24.170000</ele>
                <time>2016-04-24T05:45:48Z</time>
            </trkpt>
            <trkpt lon="100.950076" lat="14.514221">
                <ele>23.210000</ele>
                <time>2016-04-24T05:46:00Z</time>
            </trkpt>
            <trkpt lon="100.949562" lat="14.514836">
                <ele>23.690000</ele>
                <time>2016-04-24T05:46:32Z</time>
            </trkpt>
            <trkpt lon="100.949222" lat="14.514696">
                <ele>23.210000</ele>
                <time>2016-04-24T05:46:47Z</time>
            </trkpt>
            <trkpt lon="100.949339" lat="14.514984">
                <ele>23.210000</ele>
                <time>2016-04-24T05:47:05Z</time>
            </trkpt>
            <trkpt lon="100.949247" lat="14.515259">
                <ele>23.690000</ele>
                <time>2016-04-24T05:47:19Z</time>
            </trkpt>
            <trkpt lon="100.949160" lat="14.515363">
                <ele>23.690000</ele>
                <time>2016-04-24T05:47:24Z</time>
            </trkpt>
            <trkpt lon="100.948970" lat="14.515439">
                <ele>21.290000</ele>
                <time>2016-04-24T05:47:42Z</time>
            </trkpt>
            <trkpt lon="100.948842" lat="14.515814">
                <ele>23.690000</ele>
                <time>2016-04-24T05:49:27Z</time>
            </trkpt>
            <trkpt lon="100.948839" lat="14.515948">
                <ele>23.210000</ele>
                <time>2016-04-24T05:49:35Z</time>
            </trkpt>
            <trkpt lon="100.948853" lat="14.516414">
                <ele>24.170000</ele>
                <time>2016-04-24T05:49:57Z</time>
            </trkpt>
            <trkpt lon="100.948847" lat="14.517246">
                <ele>23.210000</ele>
                <time>2016-04-24T05:50:27Z</time>
            </trkpt>
            <trkpt lon="100.948466" lat="14.517402">
                <ele>23.690000</ele>
                <time>2016-04-24T05:50:39Z</time>
            </trkpt>
            <trkpt lon="100.947986" lat="14.517513">
                <ele>23.210000</ele>
                <time>2016-04-24T05:50:54Z</time>
            </trkpt>
            <trkpt lon="100.947647" lat="14.518049">
                <ele>23.210000</ele>
                <time>2016-04-24T05:51:17Z</time>
            </trkpt>
            <trkpt lon="100.947624" lat="14.518074">
                <ele>22.730000</ele>
                <time>2016-04-24T05:51:18Z</time>
            </trkpt>
            <trkpt lon="100.947818" lat="14.519278">
                <ele>21.290000</ele>
                <time>2016-04-24T05:51:58Z</time>
            </trkpt>
            <trkpt lon="100.947334" lat="14.519665">
                <ele>23.690000</ele>
                <time>2016-04-24T05:52:25Z</time>
            </trkpt>
            <trkpt lon="100.942779" lat="14.521581">
                <ele>32.340000</ele>
                <time>2016-04-24T05:55:18Z</time>
            </trkpt>
            <trkpt lon="100.942785" lat="14.518682">
                <ele>31.380000</ele>
                <time>2016-04-24T05:56:50Z</time>
            </trkpt>
            <trkpt lon="100.942910" lat="14.518018">
                <ele>33.300000</ele>
                <time>2016-04-24T05:57:12Z</time>
            </trkpt>
            <trkpt lon="100.943482" lat="14.517912">
                <ele>31.860000</ele>
                <time>2016-04-24T05:57:28Z</time>
            </trkpt>
        </trkseg>
    </trk>
</gpx>